x

Southeast Bering Sea -205nm Wnw Of Dutch Harbor, Ak (46073) Wave Buoy

8:50 - Sun 28th Dec 2014 All times are UTC.

  • Sig Wave height 10.2ft
  • Swell Direction
  • Peak Period 11s
  • Average Period 7s
  • Wind
    22mph, 27mph gusts
  • Sea Temp 41°f
  • Luft Temp 39°f
  • Sea Pressure 1000mb

More Historic Weather Station data

Upgrade to MSW Pro to gain access to the past 30 days of data for over 8000 Wavebouys and Weather Stations around the globe.

Join Pro

Comparision Forecast

View Surf forecast
   
So 12/28 8:50 10ft 11s 7s 22 27 mph 1000mb 41f 39f
7:50 11.5ft 12s 7s 18 22 mph 999.1mb 41f 39f
6:50 10ft 12s 7s 20 25 mph 999.1mb 41f 39f
5:50 11ft 13s 7s 25 29 mph 999.3mb 41f 39f
4:50 10ft 12s 7s 25 29 mph 999mb 41f 38f
3:50 10ft 12s 7s 25 31 mph 999mb 41f 38f
2:50 11ft 13s 8s 22 27 mph 998.8mb 41f 39f
1:50 10ft 13s 8s 20 25 mph 998.6mb 41f 40f
12:50 10ft 12s 8s 20 22 mph 998.8mb 41f 40f
Sa 12/27 11:50 11ft 12s 8s 18 22 mph 999.1mb 41f 40f
10:50 11ft 12s 8s 20 25 mph 999.3mb 41f 40f
9:50 11.5ft 11s 8s 16 18 mph 999.5mb 41f 40f
8:50 12.5ft 11s 8s 11 13 mph 999.5mb 41f 39f
7:50 11.5ft 13s 8s 7 9 mph 999.4mb 41f 38f
6:50 12.5ft 11s 9s 13 22 mph 998.9mb 41f 39f
5:50 13ft 12s 8s 11 13 mph 998.7mb 41f 39f
4:50 12.5ft 13s 8s 11 13 mph 998.9mb 41f 38f
3:50 12ft 12s 8s 16 20 mph 999.1mb 41f 38f
2:50 14ft 13s 9s 22 27 mph 999.3mb 41f 37f
1:50 14.5ft 13s 9s 18 22 mph 999.5mb 41f 40f
12:50 14ft 12s 9s 11 25 mph 999.5mb 41f 38f
11:50 14.5ft 12s 9s 18 22 mph 999.4mb 41f 39f
10:50 15ft 12s 9s 18 22 mph 999mb 41f 38f
9:50 14.5ft 10s 8s 16 18 mph 998.5mb 41f 38f
8:50 15ft 11s 8s 16 20 mph 997mb 41f 37f
7:50 15.5ft 10s 8s 25 29 mph 994.8mb 41f 36f
6:50 15ft 8s 7s 18 22 mph 993.1mb 41f 35f
5:50 15.5ft 13s 8s 29 38 mph 992.3mb 41f 41f
4:50 14.5ft 9s 8s 29 38 mph 992.6mb 41f 41f
3:50 14ft 11s 8s 34 40 mph 993mb 41f 40f
2:50 15ft 11s 8s 31 38 mph 993.8mb 41f 40f
1:50 15.5ft 11s 9s 27 31 mph 994.6mb 41f 40f
12:50 15.5ft 12s 9s 11 13 mph 995.8mb 41f 40f
Fr 12/26 11:50 16.5ft 11s 9s 9 11 mph 997.2mb 41f 41f
10:50 17ft 12s 9s 9 13 mph 997.8mb 41f 42f
9:50 15.5ft 11s 8s 13 20 mph 997.7mb 41f 42f
8:50 15.5ft 10s 8s 16 20 mph 996.8mb 41f 42f
7:50 18.5ft 11s 8s 20 25 mph 995.5mb 41f 42f
6:50 19.5ft 11s 8s 34 40 mph 993.5mb 41f 42f
5:50 18.5ft 11s 8s 36 45 mph 992.5mb 41f 41f
4:50 19.5ft 10s 8s 36 45 mph 993.2mb 41f 41f
3:50 16ft 8s 8s 36 47 mph 994mb 40f 40f
2:50 15ft 8s 7s 38 45 mph 995mb 41f 40f
1:50 13ft 14s 7s 36 47 mph 996mb 41f 40f
12:50 13ft 14s 7s 31 40 mph 997.5mb 41f 41f
11:50 12.5ft 15s 7s 31 38 mph 999.2mb 41f 41f
10:50 13ft 15s 8s 29 34 mph 1000.8mb 41f 40f
9:50 13.5ft 15s 8s 25 31 mph 1002.2mb 41f 39f
8:50 14.5ft 15s 9s 20 27 mph 1002.8mb 41f 41f
7:50 15.5ft 15s 9s 16 20 mph 1003.3mb 41f 41f
6:50 17.5ft 11s 9s 16 20 mph 1003.6mb 41f 41f
5:50 16.5ft 11s 9s 18 22 mph 1003.3mb 41f 41f
4:50 17ft 11s 8s 22 29 mph 1002.3mb 41f 41f
3:50 16.5ft 12s 8s 25 31 mph 1001.1mb 41f 41f
2:50 16.5ft 10s 8s 29 40 mph 999.3mb 41f 40f
1:50 16ft 10s 7s 34 45 mph 997.7mb 41f 41f
12:50 14.5ft 9s 7s 31 38 mph 996.8mb 41f 39f
Do 12/25 11:50 12.5ft 10s 7s 36 43 mph 996.2mb 41f 37f
10:50 13ft 12s 7s 29 38 mph 995.7mb 41f 38f
9:50 12ft 11s 7s 29 34 mph 994.7mb 41f 40f
8:50 13ft 11s 8s 27 38 mph 993.6mb 41f 40f
7:50 12.5ft 13s 8s 27 36 mph 992.4mb 41f 40f
6:50 12.5ft 13s 8s 22 27 mph 991.7mb 41f 39f
5:50 12ft 10s 8s 27 34 mph 991.5mb 41f 37f
4:50 12.5ft 11s 8s 18 20 mph 992.9mb 41f 35f
3:50 11.5ft 9s 7s 11 16 mph 993.2mb 41f 37f
2:50 14ft 11s 8s 16 22 mph 993.4mb 41f 37f
1:50 13ft 11s 8s 25 31 mph 993.2mb 41f 37f
12:50 13ft 11s 7s 25 29 mph 992.7mb 41f 38f
11:50 14ft 11s 8s 25 29 mph 992.3mb 41f 39f
10:50 14ft 10s 8s 27 31 mph 991.6mb 41f 39f
9:50 13ft 11s 7s 29 36 mph 990.5mb 41f 38f
8:50 14ft 13s 8s 27 34 mph 989.3mb 41f 40f
7:50 14ft 9s 7s 25 31 mph 988.2mb 41f 38f
6:50 13ft 12s 8s 31 40 mph 986.3mb 41f 38f
5:50 11.5ft 11s 7s 29 38 mph 984.6mb 41f 38f
4:50 12.5ft 13s 8s 29 36 mph 983.1mb 41f 39f
3:50 11ft 12s 7s 22 27 mph 982.5mb 41f 39f
2:50 11ft 13s 8s 20 25 mph 981.9mb 41f 39f
1:50 12.5ft 13s 8s 20 22 mph 981.8mb 41f 39f
12:50 13.5ft 13s 8s 22 29 mph 982mb 41f 39f
Mi 12/24 11:50 15ft 14s 8s 22 29 mph 982.5mb 41f 39f
10:50 16ft 14s 8s 25 31 mph 983.4mb 41f 39f
9:50 15.5ft 15s 8s 36 45 mph 983.7mb 41f 39f
8:50 16.5ft 15s 9s 27 36 mph 985mb 41f 41f
7:50 15.5ft 15s 9s 29 36 mph 985.9mb 41f 41f
6:50 16.5ft 15s 9s 29 36 mph 986.8mb 41f 41f
5:50 16.5ft 15s 10s 22 29 mph 986.7mb 41f 40f
4:50 18.5ft 15s 10s 22 31 mph 988.4mb 41f 40f
3:50 17.5ft 16s 10s 22 29 mph 989.3mb 41f 40f
2:50 19.5ft 13s 10s 16 22 mph 989.7mb 41f 40f
1:50 18.5ft 15s 10s 16 20 mph 990.5mb 41f 41f
12:50 23ft 14s 11s 16 20 mph 990.8mb 41f 41f
11:50 20.5ft 14s 10s 18 25 mph 990.9mb 41f 41f
10:50 19ft 14s 10s 22 29 mph 990.4mb 41f 41f